Mouthcard, Kentucky
Current Conditions -  °F | °C
As of 1:55 AM on Saturday 25 Oct 2014 (Local Time) from KPBX Reporting Station
Clear Clear  
Wind Chill: 46°   Ceiling: Unl
Heat Index: 46°   Visibility: 10mi
Dew Point: 42°   Wind: 3mph
Humidity: 88%   Direction: 170°S
Pressure: 30.07"   Gusts: NA
Location:  37.38°N, 82.26°W
Report Text: KPBX 250555Z AUTO 17003KT 10SM CLR 08/06 A3007 RMK AO2 T00750057 10125 20075
Loading
Personal Weather Stations






























Interactive Weather Map
Tropical Storm Tracking
New forecast layout! Learn more

10-Day Weather Forecast

Advertisements
Track Severe Weather on mobile